Time;durP1;ratioP1;P1;durP2;ratioP2;P2;SDS_P1;SDS_P2;PMS_P1;PMS_P2;Temp;Humidity;BMP_temperature;BMP_pressure;BME280_temperature;BME280_humidity;BME280_pressure;Samples;Min_cycle;Max_cycle;Signal;HPM_P1;HPM_P2
2022/01/07 00:00:13;;;;;;;;;;;7.30;61.50;;;;;;4983467;28;19917;-94
2022/01/07 00:02:40;;;;;;;;;;;7.30;61.60;;;;;;4984164;28;19922;-93
2022/01/07 00:05:06;;;;;;;;;;;7.30;61.80;;;;;;4983387;28;19917;-92
2022/01/07 00:07:34;;;;;;;;;;;7.40;61.80;;;;;;4984895;28;19924;-91
2022/01/07 00:09:59;;;;;;;;;;;7.50;61.60;;;;;;4999094;28;20409;-91
2022/01/07 00:12:25;;;;;;;;;;;7.50;61.60;;;;;;4980745;28;19964;-92
2022/01/07 00:14:50;;;;;;;;;;;7.50;61.80;;;;;;5000575;28;19981;-92
2022/01/07 00:17:16;;;;;;;;;;;7.50;61.90;;;;;;4984224;28;19914;-94
2022/01/07 00:19:42;;;;;;;;;;;7.50;61.90;;;;;;4983051;28;19921;-93
2022/01/07 00:22:07;;;;;;;;;;;7.60;61.90;;;;;;5003343;28;19914;-92
2022/01/07 00:24:33;;;;;;;;;;;7.60;62.00;;;;;;4984476;28;19918;-93
2022/01/07 00:26:58;;;;;;;;;;;7.70;62.00;;;;;;4982566;28;20012;-91
2022/01/07 00:29:25;;;;;;;;;;;7.70;61.90;;;;;;5000655;28;20633;-93
2022/01/07 00:31:50;;;;;;;;;;;7.70;61.70;;;;;;4983629;28;19960;-93
2022/01/07 00:34:16;;;;;;;;;;;7.80;61.90;;;;;;4983688;28;19972;-94
2022/01/07 00:36:41;;;;;;;;;;;7.70;61.90;;;;;;4982475;28;20362;-93
2022/01/07 00:39:07;;;;;;;;;;;7.80;61.90;;;;;;4983918;28;19964;-92
2022/01/07 00:41:32;;;;;;;;;;;7.80;61.80;;;;;;4983792;28;19961;-91
2022/01/07 00:43:59;;;;;;;;;;;7.90;61.70;;;;;;4999225;28;19914;-93
2022/01/07 00:46:24;;;;;;;;;;;7.90;61.70;;;;;;4981969;28;19922;-91
2022/01/07 00:48:50;;;;;;;;;;;8.00;61.60;;;;;;4982441;28;19968;-93
2022/01/07 00:51:15;;;;;;;;;;;7.90;61.50;;;;;;4999068;28;19914;-93
2022/01/07 00:53:41;;;;;;;;;;;8.00;61.90;;;;;;4981773;28;19946;-93
2022/01/07 00:56:07;;;;;;;;;;;8.00;61.90;;;;;;4981301;28;20001;-92
2022/01/07 00:58:33;;;;;;;;;;;8.00;61.70;;;;;;4981477;28;19921;-91
2022/01/07 01:00:59;;;;;;;;;;;8.10;61.70;;;;;;4998071;28;19930;-92
2022/01/07 01:03:24;;;;;;;;;;;8.10;61.50;;;;;;4999149;28;19910;-94
2022/01/07 01:05:50;;;;;;;;;;;8.20;61.50;;;;;;4981640;28;20039;-92
2022/01/07 01:08:16;;;;;;;;;;;8.20;61.50;;;;;;4997654;28;19969;-92
2022/01/07 01:10:41;;;;;;;;;;;8.20;61.50;;;;;;4980531;28;19913;-92
2022/01/07 01:13:07;;;;;;;;;;;8.20;61.50;;;;;;4980791;28;19921;-93
2022/01/07 01:15:32;;;;;;;;;;;8.20;61.40;;;;;;4979803;28;19918;-91
2022/01/07 01:17:59;;;;;;;;;;;8.30;61.60;;;;;;4981135;28;19986;-93
2022/01/07 01:20:25;;;;;;;;;;;8.30;61.40;;;;;;4981790;28;20005;-94
2022/01/07 01:22:51;;;;;;;;;;;8.30;61.40;;;;;;4981574;28;19925;-91
2022/01/07 01:25:17;;;;;;;;;;;8.40;61.40;;;;;;4980626;28;19914;-93
2022/01/07 01:27:42;;;;;;;;;;;8.40;61.30;;;;;;4981424;28;19918;-93
2022/01/07 01:30:10;;;;;;;;;;;8.30;61.30;;;;;;4981333;28;20048;-92
2022/01/07 01:32:36;;;;;;;;;;;8.40;61.30;;;;;;4981522;28;20293;-93
2022/01/07 01:35:02;;;;;;;;;;;8.40;61.20;;;;;;4982073;28;19914;-94
2022/01/07 01:37:29;;;;;;;;;;;8.40;61.30;;;;;;4980255;28;19965;-93
2022/01/07 01:39:56;;;;;;;;;;;8.40;61.30;;;;;;4981191;28;20642;-92
2022/01/07 01:42:22;;;;;;;;;;;8.40;61.20;;;;;;4981057;28;20382;-93
2022/01/07 01:44:47;;;;;;;;;;;8.40;61.10;;;;;;4980157;28;19913;-93
2022/01/07 01:47:13;;;;;;;;;;;8.40;61.20;;;;;;4980642;28;20412;-93
2022/01/07 01:49:39;;;;;;;;;;;8.40;61.10;;;;;;4979926;28;20353;-92
2022/01/07 01:52:04;;;;;;;;;;;8.40;61.20;;;;;;4981493;28;19969;-92
2022/01/07 01:54:30;;;;;;;;;;;8.40;61.10;;;;;;4981998;28;19921;-93
2022/01/07 01:56:55;;;;;;;;;;;8.40;61.10;;;;;;4999834;28;19921;-93
2022/01/07 01:59:25;;;;;;;;;;;8.40;61.00;;;;;;4997533;28;19925;-93
2022/01/07 02:01:50;;;;;;;;;;;8.50;61.10;;;;;;4981278;28;19977;-93
2022/01/07 02:04:16;;;;;;;;;;;8.50;61.20;;;;;;4980858;28;20493;-94
2022/01/07 02:06:41;;;;;;;;;;;8.40;61.00;;;;;;4980799;28;20020;-93
2022/01/07 02:09:07;;;;;;;;;;;8.40;61.40;;;;;;4981429;28;19922;-93
2022/01/07 02:11:33;;;;;;;;;;;8.40;61.40;;;;;;4979945;28;19910;-93
2022/01/07 02:13:59;;;;;;;;;;;8.50;61.30;;;;;;4989243;28;20253;-93
2022/01/07 02:16:25;;;;;;;;;;;8.50;61.40;;;;;;5004919;28;19920;-92
2022/01/07 02:18:51;;;;;;;;;;;8.50;61.40;;;;;;5004005;28;19933;-94
2022/01/07 02:21:16;;;;;;;;;;;8.60;61.40;;;;;;5005031;28;19913;-91
2022/01/07 02:23:42;;;;;;;;;;;8.70;61.40;;;;;;5004202;28;20046;-92
2022/01/07 02:26:08;;;;;;;;;;;8.60;61.20;;;;;;5022041;28;19909;-92
2022/01/07 02:28:34;;;;;;;;;;;8.60;61.20;;;;;;5021645;28;19920;-93
2022/01/07 02:30:59;;;;;;;;;;;8.60;61.20;;;;;;5002866;28;19925;-92
2022/01/07 02:33:25;;;;;;;;;;;8.70;61.40;;;;;;5019817;28;19934;-91
2022/01/07 02:35:50;;;;;;;;;;;8.70;61.30;;;;;;5001085;28;19991;-92
2022/01/07 02:38:16;;;;;;;;;;;8.60;61.10;;;;;;5002606;28;19920;-92
2022/01/07 02:40:42;;;;;;;;;;;8.70;61.40;;;;;;5003853;28;19929;-92
2022/01/07 02:43:08;;;;;;;;;;;8.70;61.30;;;;;;5021334;28;19910;-92
2022/01/07 02:45:34;;;;;;;;;;;8.70;61.20;;;;;;5002344;28;19917;-92
2022/01/07 02:48:02;;;;;;;;;;;8.70;61.20;;;;;;5002055;28;20269;-91
2022/01/07 02:50:29;;;;;;;;;;;8.80;61.10;;;;;;5002739;28;19967;-92
2022/01/07 02:52:55;;;;;;;;;;;8.80;61.30;;;;;;5002836;28;19910;-92
2022/01/07 02:55:21;;;;;;;;;;;8.80;61.10;;;;;;5002937;28;19908;-91
2022/01/07 02:57:47;;;;;;;;;;;8.80;61.20;;;;;;5003049;28;19937;-93
2022/01/07 03:00:13;;;;;;;;;;;8.70;61.20;;;;;;5001747;28;19921;-93
2022/01/07 03:02:38;;;;;;;;;;;8.80;61.10;;;;;;5001982;28;19913;-92
2022/01/07 03:05:04;;;;;;;;;;;8.70;60.90;;;;;;5001903;28;20356;-92
2022/01/07 03:07:29;;;;;;;;;;;8.90;61.10;;;;;;5020050;28;19926;-93
2022/01/07 03:09:55;;;;;;;;;;;8.90;61.00;;;;;;5020555;28;19924;-92
2022/01/07 03:12:20;;;;;;;;;;;8.80;60.90;;;;;;5002231;28;19910;-93
2022/01/07 03:14:48;;;;;;;;;;;8.80;61.10;;;;;;5020169;28;20016;-92
2022/01/07 03:17:13;;;;;;;;;;;8.90;61.10;;;;;;5001093;28;19913;-93
2022/01/07 03:19:39;;;;;;;;;;;9.00;61.10;;;;;;5002380;28;20020;-93
2022/01/07 03:22:04;;;;;;;;;;;9.00;61.00;;;;;;5000995;28;20616;-92
2022/01/07 03:24:30;;;;;;;;;;;9.00;61.00;;;;;;5001431;28;19918;-92
2022/01/07 03:26:55;;;;;;;;;;;9.10;61.20;;;;;;5001813;28;20707;-91
2022/01/07 03:29:21;;;;;;;;;;;9.00;60.90;;;;;;5019578;28;20265;-93
2022/01/07 03:31:46;;;;;;;;;;;9.00;60.90;;;;;;5001617;28;19941;-92
2022/01/07 03:34:12;;;;;;;;;;;9.00;60.90;;;;;;5001441;28;19924;-93
2022/01/07 03:36:37;;;;;;;;;;;9.00;60.80;;;;;;5002025;28;20353;-93
2022/01/07 03:39:03;;;;;;;;;;;9.00;60.90;;;;;;5001448;28;19939;-92
2022/01/07 03:41:29;;;;;;;;;;;9.00;60.90;;;;;;5001539;28;20357;-92
2022/01/07 03:43:54;;;;;;;;;;;9.00;60.90;;;;;;5001482;28;19931;-92
2022/01/07 03:46:22;;;;;;;;;;;9.00;60.90;;;;;;5001284;28;20362;-95
2022/01/07 03:48:48;;;;;;;;;;;8.90;60.90;;;;;;5003964;28;19913;-92
2022/01/07 03:51:13;;;;;;;;;;;8.90;60.80;;;;;;5001532;28;20350;-92
2022/01/07 03:53:39;;;;;;;;;;;8.80;61.00;;;;;;4999995;28;19932;-93
2022/01/07 03:56:05;;;;;;;;;;;8.60;60.70;;;;;;5002143;28;19976;-91
2022/01/07 03:58:30;;;;;;;;;;;8.60;60.80;;;;;;5019842;28;19965;-92
2022/01/07 04:00:56;;;;;;;;;;;8.60;60.90;;;;;;5001094;28;19965;-93
2022/01/07 04:03:21;;;;;;;;;;;8.50;60.90;;;;;;5000336;28;20419;-93
2022/01/07 04:05:47;;;;;;;;;;;8.50;61.10;;;;;;5001638;28;20025;-93
2022/01/07 04:08:12;;;;;;;;;;;8.40;61.40;;;;;;5019347;28;19936;-93
2022/01/07 04:10:38;;;;;;;;;;;8.30;61.60;;;;;;5002237;28;19960;-93
2022/01/07 04:13:04;;;;;;;;;;;8.30;61.70;;;;;;5001032;28;19913;-94
2022/01/07 04:15:30;;;;;;;;;;;8.20;61.80;;;;;;5001706;28;19917;-94
2022/01/07 04:17:55;;;;;;;;;;;8.20;61.90;;;;;;5019339;28;19909;-93
2022/01/07 04:20:23;;;;;;;;;;;8.20;62.00;;;;;;5001705;28;19924;-93
2022/01/07 04:22:48;;;;;;;;;;;8.10;62.10;;;;;;5019751;28;19909;-94
2022/01/07 04:25:17;;;;;;;;;;;8.10;62.30;;;;;;5002408;28;19929;-93
2022/01/07 04:27:50;;;;;;;;;;;8.10;62.50;;;;;;5001638;28;19986;-94
2022/01/07 04:30:17;;;;;;;;;;;8.10;62.50;;;;;;5002271;28;19918;-93
2022/01/07 04:32:43;;;;;;;;;;;8.00;62.70;;;;;;4984363;28;19914;-93
2022/01/07 04:35:09;;;;;;;;;;;8.00;62.70;;;;;;4980725;28;19937;-92
2022/01/07 04:37:35;;;;;;;;;;;8.00;63.00;;;;;;4981700;28;19937;-94
2022/01/07 04:40:00;;;;;;;;;;;7.90;62.90;;;;;;4982469;28;19922;-94
2022/01/07 04:42:26;;;;;;;;;;;7.90;63.10;;;;;;4999875;28;19917;-93
2022/01/07 04:44:51;;;;;;;;;;;7.70;63.20;;;;;;4981979;28;20251;-93
2022/01/07 04:47:16;;;;;;;;;;;7.70;63.60;;;;;;4999369;28;19921;-94
2022/01/07 04:49:42;;;;;;;;;;;7.80;63.50;;;;;;4982699;28;19914;-94
2022/01/07 04:52:07;;;;;;;;;;;7.80;63.50;;;;;;4981797;28;19937;-94
2022/01/07 04:54:33;;;;;;;;;;;7.90;63.40;;;;;;4982706;28;19947;-93
2022/01/07 04:56:59;;;;;;;;;;;7.90;63.30;;;;;;4983722;28;19964;-95
2022/01/07 04:59:25;;;;;;;;;;;7.90;63.50;;;;;;4982740;28;19906;-94
2022/01/07 05:01:50;;;;;;;;;;;8.00;63.40;;;;;;4983610;28;19936;-95
2022/01/07 05:04:16;;;;;;;;;;;8.00;63.40;;;;;;4980602;28;20016;-94
2022/01/07 05:06:45;;;;;;;;;;;8.00;63.30;;;;;;4981346;28;19914;-94
2022/01/07 05:09:17;;;;;;;;;;;7.90;63.30;;;;;;4981546;28;19921;-95
2022/01/07 05:11:43;;;;;;;;;;;8.00;63.30;;;;;;4983712;28;19910;-95
2022/01/07 05:14:09;;;;;;;;;;;7.90;63.40;;;;;;4991599;28;19943;-93
2022/01/07 05:16:34;;;;;;;;;;;8.00;63.40;;;;;;5000441;28;20420;-93
2022/01/07 05:19:00;;;;;;;;;;;7.90;63.40;;;;;;5000868;28;20042;-94
2022/01/07 05:21:26;;;;;;;;;;;7.80;63.50;;;;;;5019268;28;20396;-96
2022/01/07 05:23:51;;;;;;;;;;;7.90;63.40;;;;;;5001675;28;19945;-94
2022/01/07 05:26:17;;;;;;;;;;;8.00;63.50;;;;;;5020836;28;19928;-95
2022/01/07 05:28:42;;;;;;;;;;;7.90;63.50;;;;;;5001129;28;20357;-92
2022/01/07 05:31:07;;;;;;;;;;;7.90;63.60;;;;;;5001375;28;19909;-95
2022/01/07 05:33:33;;;;;;;;;;;7.90;63.40;;;;;;5000582;28;19948;-95
2022/01/07 05:35:58;;;;;;;;;;;8.00;63.50;;;;;;5001909;28;19944;-93
2022/01/07 05:38:24;;;;;;;;;;;7.90;63.60;;;;;;5019372;28;19916;-94
2022/01/07 05:40:49;;;;;;;;;;;8.00;63.50;;;;;;5000634;28;19968;-91
2022/01/07 05:43:15;;;;;;;;;;;8.00;63.50;;;;;;5017927;28;19932;-96
2022/01/07 05:45:44;;;;;;;;;;;8.00;63.50;;;;;;5018889;28;19917;-96
2022/01/07 05:48:10;;;;;;;;;;;7.90;63.70;;;;;;5024057;28;19921;-95
2022/01/07 05:50:35;;;;;;;;;;;7.90;63.60;;;;;;5005056;28;19971;-95
2022/01/07 05:53:01;;;;;;;;;;;8.00;63.40;;;;;;5023651;28;19914;-96
2022/01/07 05:55:26;;;;;;;;;;;8.00;63.50;;;;;;5005696;28;19921;-95
2022/01/07 05:57:52;;;;;;;;;;;7.90;63.30;;;;;;5005093;28;19917;-94
2022/01/07 06:00:18;;;;;;;;;;;7.80;63.70;;;;;;5001967;28;19918;-94
2022/01/07 06:02:43;;;;;;;;;;;7.90;63.60;;;;;;4998821;28;19906;-94
2022/01/07 06:05:09;;;;;;;;;;;8.00;63.40;;;;;;5003367;28;19914;-94
2022/01/07 06:07:36;;;;;;;;;;;8.00;63.30;;;;;;5008016;28;19937;-95
2022/01/07 06:10:02;;;;;;;;;;;7.80;63.40;;;;;;4986748;28;19910;-96
2022/01/07 06:12:28;;;;;;;;;;;7.80;63.40;;;;;;4987865;28;19918;-93
2022/01/07 06:14:53;;;;;;;;;;;7.80;63.50;;;;;;5002483;28;19924;-95
2022/01/07 06:17:19;;;;;;;;;;;7.90;63.40;;;;;;5040524;28;19921;-94
2022/01/07 06:19:44;;;;;;;;;;;7.90;63.50;;;;;;4998234;28;19914;-94
2022/01/07 06:22:10;;;;;;;;;;;7.90;63.50;;;;;;4997404;28;19933;-94
2022/01/07 06:24:35;;;;;;;;;;;7.90;63.40;;;;;;5007743;28;19948;-95
2022/01/07 06:27:01;;;;;;;;;;;7.80;63.40;;;;;;5011909;28;20495;-95
2022/01/07 06:29:26;;;;;;;;;;;7.80;63.40;;;;;;5032419;28;19916;-94
2022/01/07 06:31:52;;;;;;;;;;;7.80;63.40;;;;;;5011828;28;19921;-95
2022/01/07 06:34:20;;;;;;;;;;;7.80;63.50;;;;;;5003075;28;19984;-94
2022/01/07 06:36:46;;;;;;;;;;;7.80;63.30;;;;;;4995364;28;19917;-95
2022/01/07 06:39:12;;;;;;;;;;;7.80;63.20;;;;;;5005468;28;19933;-94
2022/01/07 06:41:38;;;;;;;;;;;7.70;63.40;;;;;;5038081;28;19921;-94
2022/01/07 06:44:03;;;;;;;;;;;7.80;63.50;;;;;;5032526;28;19909;-94
2022/01/07 06:46:29;;;;;;;;;;;7.80;63.70;;;;;;5023702;28;19936;-94
2022/01/07 06:48:55;;;;;;;;;;;7.80;63.70;;;;;;5025296;28;19916;-93
2022/01/07 06:51:20;;;;;;;;;;;7.90;63.70;;;;;;5007635;28;19918;-94
2022/01/07 06:53:46;;;;;;;;;;;7.80;63.70;;;;;;5041339;28;19917;-95
2022/01/07 06:56:11;;;;;;;;;;;7.90;63.80;;;;;;4995897;28;19914;-95
2022/01/07 06:58:37;;;;;;;;;;;8.00;63.70;;;;;;5011793;28;19922;-95
2022/01/07 07:01:03;;;;;;;;;;;8.00;63.60;;;;;;5003212;28;19920;-94
2022/01/07 07:03:28;;;;;;;;;;;8.00;63.60;;;;;;4985524;28;19949;-93
2022/01/07 07:05:54;;;;;;;;;;;8.00;63.70;;;;;;4995834;28;19940;-94
2022/01/07 07:08:19;;;;;;;;;;;8.00;63.80;;;;;;5015418;28;20361;-95
2022/01/07 07:10:45;;;;;;;;;;;8.00;63.70;;;;;;5022522;28;19913;-94
2022/01/07 07:13:11;;;;;;;;;;;8.10;63.60;;;;;;5024659;28;19917;-93
2022/01/07 07:15:37;;;;;;;;;;;8.00;63.60;;;;;;5011335;28;20366;-95
2022/01/07 07:18:02;;;;;;;;;;;8.10;63.60;;;;;;5006783;28;19925;-93
2022/01/07 07:20:28;;;;;;;;;;;8.10;63.50;;;;;;5011548;28;19947;-94
2022/01/07 07:22:53;;;;;;;;;;;8.10;63.70;;;;;;5017330;28;19928;-93
2022/01/07 07:25:22;;;;;;;;;;;8.10;63.70;;;;;;5017270;28;20033;-92
2022/01/07 07:27:48;;;;;;;;;;;8.20;63.70;;;;;;5026231;28;20493;-95
2022/01/07 07:30:14;;;;;;;;;;;8.20;63.60;;;;;;5025122;28;19947;-95
2022/01/07 07:32:39;;;;;;;;;;;8.20;63.50;;;;;;4994461;28;19910;-94
2022/01/07 07:37:43;;;;;;;;;;;8.30;63.40;;;;;;5015262;28;19910;-94
2022/01/07 07:40:10;;;;;;;;;;;8.30;63.60;;;;;;5033064;28;19997;-92
2022/01/07 07:42:35;;;;;;;;;;;8.30;63.50;;;;;;4990590;28;19961;-92
2022/01/07 07:45:01;;;;;;;;;;;8.30;63.50;;;;;;4994519;28;19914;-94
2022/01/07 07:47:28;;;;;;;;;;;8.40;63.40;;;;;;4993196;28;19913;-94
2022/01/07 07:49:54;;;;;;;;;;;8.40;63.50;;;;;;4986447;28;20004;-94
2022/01/07 07:52:20;;;;;;;;;;;8.30;63.30;;;;;;4986959;28;19913;-93
2022/01/07 07:54:46;;;;;;;;;;;8.30;63.30;;;;;;4995122;28;19989;-95
2022/01/07 07:57:11;;;;;;;;;;;8.30;63.40;;;;;;5009957;28;19963;-93
2022/01/07 07:59:36;;;;;;;;;;;8.30;63.50;;;;;;5005290;28;20302;-94
2022/01/07 08:02:02;;;;;;;;;;;8.30;63.50;;;;;;4990494;28;20353;-91
2022/01/07 08:04:28;;;;;;;;;;;8.30;63.60;;;;;;5035326;28;19917;-94
2022/01/07 08:06:54;;;;;;;;;;;8.30;63.70;;;;;;5015073;28;19917;-94
2022/01/07 08:09:19;;;;;;;;;;;8.40;63.60;;;;;;4989728;28;19902;-94
2022/01/07 08:11:50;;;;;;;;;;;8.30;63.70;;;;;;4989411;28;19918;-95
2022/01/07 08:17:00;;;;;;;;;;;8.40;63.70;;;;;;5013152;28;19956;-96
2022/01/07 08:19:26;;;;;;;;;;;8.40;63.80;;;;;;4999974;28;20357;-94
2022/01/07 08:21:51;;;;;;;;;;;8.50;63.80;;;;;;5031402;28;19913;-95
2022/01/07 08:24:19;;;;;;;;;;;8.50;63.70;;;;;;4980266;28;21993;-94
2022/01/07 08:26:45;;;;;;;;;;;8.50;63.80;;;;;;4995950;28;19921;-95
2022/01/07 08:29:12;;;;;;;;;;;8.60;63.90;;;;;;5017454;28;19993;-94
2022/01/07 08:36:50;;;;;;;;;;;8.70;63.80;;;;;;5018294;28;19924;-93
2022/01/07 08:39:16;;;;;;;;;;;8.70;64.00;;;;;;5043020;28;20273;-95
2022/01/07 08:41:42;;;;;;;;;;;8.70;63.80;;;;;;4998902;28;20338;-94
2022/01/07 08:44:08;;;;;;;;;;;8.80;63.80;;;;;;4992873;28;19917;-93
2022/01/07 08:46:34;;;;;;;;;;;8.80;63.60;;;;;;5003390;28;19918;-94
2022/01/07 08:49:00;;;;;;;;;;;8.80;63.70;;;;;;5026160;28;19920;-95
2022/01/07 08:51:27;;;;;;;;;;;8.80;63.70;;;;;;5000003;28;19918;-94
2022/01/07 08:53:54;;;;;;;;;;;8.80;63.60;;;;;;5000213;28;19909;-93
2022/01/07 08:56:23;;;;;;;;;;;8.90;63.50;;;;;;5002670;28;19921;-94
2022/01/07 08:58:53;;;;;;;;;;;8.90;63.60;;;;;;4995309;28;19984;-94
2022/01/07 09:01:18;;;;;;;;;;;9.00;63.60;;;;;;4997899;28;19921;-94
2022/01/07 09:03:44;;;;;;;;;;;9.00;63.60;;;;;;5009269;28;20379;-94
2022/01/07 09:06:09;;;;;;;;;;;9.00;63.60;;;;;;5003010;28;19910;-94
2022/01/07 09:08:35;;;;;;;;;;;9.00;63.60;;;;;;5044493;28;19968;-95
2022/01/07 09:11:01;;;;;;;;;;;9.00;63.60;;;;;;5017544;28;19957;-94
2022/01/07 09:13:27;;;;;;;;;;;9.00;63.70;;;;;;5005265;28;20025;-95
2022/01/07 09:15:52;;;;;;;;;;;9.00;63.60;;;;;;5008320;28;20025;-95
2022/01/07 09:18:20;;;;;;;;;;;9.00;63.70;;;;;;4993802;28;19918;-95
2022/01/07 09:20:49;;;;;;;;;;;9.00;63.80;;;;;;5025433;28;19913;-93
2022/01/07 09:23:15;;;;;;;;;;;9.10;63.70;;;;;;5019127;28;19924;-95
2022/01/07 09:25:41;;;;;;;;;;;9.10;63.70;;;;;;5013472;28;19913;-93
2022/01/07 09:28:07;;;;;;;;;;;9.20;63.80;;;;;;4991781;28;20012;-93
2022/01/07 09:30:33;;;;;;;;;;;9.20;63.90;;;;;;5017280;28;19976;-94
2022/01/07 09:32:59;;;;;;;;;;;9.30;63.80;;;;;;4986087;28;20282;-96
2022/01/07 09:35:25;;;;;;;;;;;9.30;63.70;;;;;;4996981;28;19918;-95
2022/01/07 09:37:50;;;;;;;;;;;9.30;63.70;;;;;;4989746;28;19913;-96
2022/01/07 09:40:16;;;;;;;;;;;9.30;63.70;;;;;;4997468;28;19918;-96
2022/01/07 09:42:58;;;;;;;;;;;9.30;63.80;;;;;;5007366;28;19910;-93
2022/01/07 09:45:25;;;;;;;;;;;9.40;63.80;;;;;;4990520;28;19921;-94
2022/01/07 09:47:51;;;;;;;;;;;9.40;63.80;;;;;;4996518;28;19914;-93
2022/01/07 09:50:16;;;;;;;;;;;9.50;63.90;;;;;;5000492;28;19918;-93
2022/01/07 09:52:42;;;;;;;;;;;9.50;63.90;;;;;;4991271;28;19910;-94
2022/01/07 09:55:07;;;;;;;;;;;9.60;63.70;;;;;;5012154;28;20391;-94
2022/01/07 09:57:33;;;;;;;;;;;9.70;63.60;;;;;;5016484;28;20000;-95
2022/01/07 10:00:03;;;;;;;;;;;9.70;63.60;;;;;;5028289;28;19924;-94
2022/01/07 10:02:28;;;;;;;;;;;9.70;63.60;;;;;;5008019;28;19909;-94
2022/01/07 10:04:54;;;;;;;;;;;9.70;63.60;;;;;;5003002;28;19918;-93
2022/01/07 10:07:22;;;;;;;;;;;9.70;63.50;;;;;;5003346;28;20630;-93
2022/01/07 10:09:59;;;;;;;;;;;9.70;63.50;;;;;;4992994;28;19914;-94
2022/01/07 10:12:26;;;;;;;;;;;9.70;63.50;;;;;;4985354;28;19910;-94
2022/01/07 10:15:10;;;;;;;;;;;9.70;63.50;;;;;;5011557;28;19944;-94
2022/01/07 10:17:36;;;;;;;;;;;9.80;63.60;;;;;;5015776;28;19909;-91
2022/01/07 10:20:02;;;;;;;;;;;9.80;63.60;;;;;;4992389;28;20361;-95
2022/01/07 10:22:27;;;;;;;;;;;9.80;63.60;;;;;;4991471;28;19945;-94
2022/01/07 10:24:53;;;;;;;;;;;9.80;63.60;;;;;;4997027;28;19937;-93
2022/01/07 10:27:22;;;;;;;;;;;9.90;63.70;;;;;;5009086;28;19929;-95
2022/01/07 10:30:13;;;;;;;;;;;9.90;63.50;;;;;;5037664;28;19906;-95
2022/01/07 10:32:45;;;;;;;;;;;10.00;63.60;;;;;;5035029;28;19909;-95
2022/01/07 10:35:14;;;;;;;;;;;10.00;63.60;;;;;;5017296;28;19921;-96
2022/01/07 10:37:53;;;;;;;;;;;10.10;63.60;;;;;;5034580;28;19920;-96
2022/01/07 10:40:28;;;;;;;;;;;10.10;63.70;;;;;;5025428;28;19925;-96
2022/01/07 10:42:55;;;;;;;;;;;10.10;63.50;;;;;;5024225;28;19917;-95
2022/01/07 10:45:21;;;;;;;;;;;10.20;63.60;;;;;;5016865;28;19925;-94
2022/01/07 10:47:50;;;;;;;;;;;10.20;63.40;;;;;;5008969;28;19996;-95
2022/01/07 10:50:17;;;;;;;;;;;10.20;63.40;;;;;;5002551;28;19918;-95
2022/01/07 10:52:42;;;;;;;;;;;10.30;63.50;;;;;;4989774;28;19922;-94
2022/01/07 10:55:12;;;;;;;;;;;10.20;63.30;;;;;;4991946;28;19944;-95
2022/01/07 10:57:43;;;;;;;;;;;10.30;63.40;;;;;;5006842;28;20680;-96
2022/01/07 11:00:10;;;;;;;;;;;10.30;63.20;;;;;;4998710;28;19901;-94
2022/01/07 11:02:35;;;;;;;;;;;10.30;63.50;;;;;;5010382;28;19924;-94
2022/01/07 11:05:01;;;;;;;;;;;10.30;63.30;;;;;;5000829;28;20354;-93
2022/01/07 11:07:28;;;;;;;;;;;10.40;63.30;;;;;;5003211;28;19933;-94
2022/01/07 11:09:55;;;;;;;;;;;10.40;63.40;;;;;;5003654;28;20449;-94
2022/01/07 11:12:21;;;;;;;;;;;10.50;63.30;;;;;;4995630;28;19932;-95
2022/01/07 11:14:46;;;;;;;;;;;10.50;63.40;;;;;;4992815;28;19914;-95
2022/01/07 11:17:20;;;;;;;;;;;10.60;63.20;;;;;;4994291;28;19976;-95
2022/01/07 11:19:48;;;;;;;;;;;10.70;63.40;;;;;;5005139;28;19929;-95
2022/01/07 11:22:14;;;;;;;;;;;10.70;63.30;;;;;;5013067;28;19960;-95
2022/01/07 11:24:44;;;;;;;;;;;10.80;63.20;;;;;;5008074;28;19914;-95
2022/01/07 11:27:09;;;;;;;;;;;10.80;63.10;;;;;;4998519;28;19932;-94
2022/01/07 11:29:36;;;;;;;;;;;10.80;63.30;;;;;;4991052;28;19913;-95
2022/01/07 11:32:20;;;;;;;;;;;10.80;63.00;;;;;;5002551;28;20008;-95
2022/01/07 11:34:49;;;;;;;;;;;10.70;63.20;;;;;;4993587;28;19940;-95
2022/01/07 11:37:33;;;;;;;;;;;10.60;63.20;;;;;;5008054;28;19925;-95
2022/01/07 11:39:59;;;;;;;;;;;10.60;63.30;;;;;;5042270;28;19924;-96
2022/01/07 11:42:41;;;;;;;;;;;10.50;63.50;;;;;;5008512;28;19922;-93
2022/01/07 11:45:30;;;;;;;;;;;10.50;63.50;;;;;;5005449;28;19933;-95
2022/01/07 11:48:16;;;;;;;;;;;10.50;63.60;;;;;;4993020;28;19926;-94
2022/01/07 11:51:07;;;;;;;;;;;10.50;63.80;;;;;;4994003;28;20040;-96
2022/01/07 11:53:36;;;;;;;;;;;10.60;63.70;;;;;;4990553;28;19898;-95
2022/01/07 11:56:02;;;;;;;;;;;10.60;63.60;;;;;;5002674;28;19917;-94
2022/01/07 11:58:44;;;;;;;;;;;10.60;63.60;;;;;;4999404;28;20250;-95
2022/01/07 12:01:28;;;;;;;;;;;10.60;63.60;;;;;;4991392;28;19917;-96
2022/01/07 12:04:00;;;;;;;;;;;10.60;63.50;;;;;;4995096;28;20337;-95
2022/01/07 12:06:26;;;;;;;;;;;10.60;63.60;;;;;;5000399;28;19922;-95
2022/01/07 12:09:06;;;;;;;;;;;10.70;63.50;;;;;;5015981;28;19914;-94
2022/01/07 12:11:40;;;;;;;;;;;10.70;63.60;;;;;;4998220;28;20361;-95
2022/01/07 12:14:10;;;;;;;;;;;10.70;63.60;;;;;;5009706;28;19910;-96
2022/01/07 12:16:36;;;;;;;;;;;10.70;63.70;;;;;;4998399;28;19928;-95
2022/01/07 12:19:26;;;;;;;;;;;10.80;63.50;;;;;;5035130;28;19921;-94
2022/01/07 12:21:51;;;;;;;;;;;10.80;63.60;;;;;;5015564;28;19905;-96
2022/01/07 12:24:23;;;;;;;;;;;10.90;63.50;;;;;;4998933;28;19914;-91
2022/01/07 12:32:02;;;;;;;;;;;11.00;63.30;;;;;;4782659;23;19926;-90
2022/01/07 12:34:31;;;;;;;;;;;11.00;63.40;;;;;;4984031;28;20587;-90
2022/01/07 12:39:39;;;;;;;;;;;11.10;63.30;;;;;;6068330;23;19983;-91
2022/01/07 12:50:05;;;;;;;;;;;11.30;63.10;;;;;;5063062;23;20099;-90
2022/01/07 12:55:11;;;;;;;;;;;11.30;63.20;;;;;;4996263;28;19937;-88
2022/01/07 12:57:42;;;;;;;;;;;11.40;63.20;;;;;;4959148;28;19914;-91
2022/01/07 13:00:08;;;;;;;;;;;11.30;63.20;;;;;;4958521;28;19914;-88
2022/01/07 13:02:40;;;;;;;;;;;11.40;63.10;;;;;;4981272;28;19972;-89
2022/01/07 13:05:20;;;;;;;;;;;11.50;63.10;;;;;;4960029;28;20370;-90
2022/01/07 13:07:55;;;;;;;;;;;11.40;62.90;;;;;;4956655;28;19996;-89
2022/01/07 13:10:24;;;;;;;;;;;11.50;62.90;;;;;;4973374;28;19918;-90
2022/01/07 13:12:53;;;;;;;;;;;11.40;63.00;;;;;;4954788;28;19914;-90
2022/01/07 13:15:32;;;;;;;;;;;11.50;63.20;;;;;;4959640;28;19965;-89
2022/01/07 13:18:12;;;;;;;;;;;11.60;63.30;;;;;;4954897;28;19918;-90
2022/01/07 13:20:38;;;;;;;;;;;11.70;63.00;;;;;;4953568;28;19914;-90
2022/01/07 13:23:04;;;;;;;;;;;11.70;62.90;;;;;;4975977;28;20398;-90
2022/01/07 13:25:33;;;;;;;;;;;11.60;63.00;;;;;;4961798;28;19917;-89
2022/01/07 13:28:03;;;;;;;;;;;11.60;62.80;;;;;;5012798;23;20024;-89
2022/01/07 13:30:33;;;;;;;;;;;11.60;62.70;;;;;;4975978;28;19914;-90
2022/01/07 13:33:11;;;;;;;;;;;11.60;62.70;;;;;;4964690;28;19921;-90
2022/01/07 13:35:39;;;;;;;;;;;11.60;62.60;;;;;;4971608;28;19972;-89
2022/01/07 13:38:15;;;;;;;;;;;11.60;62.80;;;;;;4966607;28;19918;-89
2022/01/07 13:40:42;;;;;;;;;;;11.60;62.60;;;;;;4969676;28;19928;-90
2022/01/07 13:43:12;;;;;;;;;;;11.60;62.70;;;;;;4988119;28;19898;-89
2022/01/07 13:45:38;;;;;;;;;;;11.60;62.60;;;;;;4979164;28;19927;-89
2022/01/07 13:48:06;;;;;;;;;;;11.50;62.70;;;;;;4980069;28;20729;-89
2022/01/07 13:50:34;;;;;;;;;;;11.50;62.70;;;;;;4984667;28;19914;-89
2022/01/07 13:53:15;;;;;;;;;;;11.50;62.50;;;;;;4962394;28;19922;-90
2022/01/07 13:55:43;;;;;;;;;;;11.50;62.60;;;;;;4995537;23;19918;-90
2022/01/07 13:58:18;;;;;;;;;;;11.50;62.90;;;;;;4981782;28;19992;-90
2022/01/07 14:00:48;;;;;;;;;;;11.50;62.70;;;;;;4976092;28;20451;-89
2022/01/07 14:03:15;;;;;;;;;;;11.50;62.80;;;;;;4975902;28;20449;-90
2022/01/07 14:05:42;;;;;;;;;;;11.40;62.50;;;;;;4987675;28;20368;-89
2022/01/07 14:08:11;;;;;;;;;;;11.40;62.60;;;;;;4991583;28;19929;-90
2022/01/07 14:10:41;;;;;;;;;;;11.40;62.60;;;;;;4996245;28;19914;-90
2022/01/07 14:13:15;;;;;;;;;;;11.40;62.60;;;;;;5051936;23;19932;-89
2022/01/07 14:15:42;;;;;;;;;;;11.40;62.70;;;;;;5027699;28;19995;-90
2022/01/07 14:18:15;;;;;;;;;;;11.40;62.90;;;;;;5020528;28;19923;-89
2022/01/07 14:20:42;;;;;;;;;;;11.40;62.70;;;;;;5027427;28;19913;-89
2022/01/07 14:23:13;;;;;;;;;;;11.40;62.60;;;;;;5013105;28;19928;-90
2022/01/07 14:25:44;;;;;;;;;;;11.30;62.50;;;;;;5034621;28;19936;-89
2022/01/07 14:28:19;;;;;;;;;;;11.30;62.60;;;;;;5019575;28;19929;-90
2022/01/07 14:30:51;;;;;;;;;;;11.30;62.60;;;;;;5026931;28;20184;-89
2022/01/07 14:33:23;;;;;;;;;;;11.30;62.60;;;;;;5023063;28;19944;-90
2022/01/07 14:35:53;;;;;;;;;;;11.30;62.60;;;;;;5011617;28;19924;-90
2022/01/07 14:38:21;;;;;;;;;;;11.20;62.50;;;;;;5002329;28;19917;-89
2022/01/07 14:40:50;;;;;;;;;;;11.20;62.50;;;;;;5018904;28;20367;-90
2022/01/07 14:43:17;;;;;;;;;;;11.20;62.40;;;;;;5023134;28;19984;-89
2022/01/07 14:45:43;;;;;;;;;;;11.10;62.30;;;;;;5026381;28;19945;-89
2022/01/07 14:48:10;;;;;;;;;;;11.10;62.40;;;;;;5014465;28;19972;-89
2022/01/07 14:50:35;;;;;;;;;;;11.10;62.50;;;;;;4998307;28;19914;-90
2022/01/07 14:53:02;;;;;;;;;;;11.10;62.60;;;;;;5021451;28;20405;-89
2022/01/07 14:55:34;;;;;;;;;;;11.10;62.50;;;;;;5035723;28;20048;-91